sensor_id;sensor_type;location;lat;lon;timestamp;P1;durP1;ratioP1;P2;durP2;ratioP2
66626;SDS011;53498;50.422;14.912;2022-08-19T00:00:35;4.07;;;1.15;;
66626;SDS011;53498;50.422;14.912;2022-08-19T00:03:05;2.80;;;1.35;;
66626;SDS011;53498;50.422;14.912;2022-08-19T00:05:30;2.03;;;1.40;;
66626;SDS011;53498;50.422;14.912;2022-08-19T00:08:00;2.70;;;0.95;;
66626;SDS011;53498;50.422;14.912;2022-08-19T00:10:26;1.40;;;1.20;;
66626;SDS011;53498;50.422;14.912;2022-08-19T00:12:51;1.55;;;1.10;;
66626;SDS011;53498;50.422;14.912;2022-08-19T00:15:18;1.45;;;0.95;;
66626;SDS011;53498;50.422;14.912;2022-08-19T00:17:48;2.33;;;1.05;;
66626;SDS011;53498;50.422;14.912;2022-08-19T00:20:14;2.45;;;0.60;;
66626;SDS011;53498;50.422;14.912;2022-08-19T00:22:43;2.00;;;0.70;;
66626;SDS011;53498;50.422;14.912;2022-08-19T00:25:10;1.90;;;0.70;;
66626;SDS011;53498;50.422;14.912;2022-08-19T00:27:36;3.90;;;1.13;;
66626;SDS011;53498;50.422;14.912;2022-08-19T00:30:03;6.80;;;1.10;;
66626;SDS011;53498;50.422;14.912;2022-08-19T00:32:29;1.77;;;0.73;;
66626;SDS011;53498;50.422;14.912;2022-08-19T00:34:55;2.30;;;0.70;;
66626;SDS011;53498;50.422;14.912;2022-08-19T00:37:22;2.13;;;0.95;;
66626;SDS011;53498;50.422;14.912;2022-08-19T00:39:52;1.75;;;0.80;;
66626;SDS011;53498;50.422;14.912;2022-08-19T00:42:19;2.75;;;0.90;;
66626;SDS011;53498;50.422;14.912;2022-08-19T00:44:46;0.93;;;0.68;;
66626;SDS011;53498;50.422;14.912;2022-08-19T00:47:12;1.48;;;0.60;;
66626;SDS011;53498;50.422;14.912;2022-08-19T00:49:42;1.25;;;0.77;;
66626;SDS011;53498;50.422;14.912;2022-08-19T00:52:12;0.83;;;0.63;;
66626;SDS011;53498;50.422;14.912;2022-08-19T00:54:40;4.32;;;0.95;;
66626;SDS011;53498;50.422;14.912;2022-08-19T00:57:09;3.63;;;0.77;;
66626;SDS011;53498;50.422;14.912;2022-08-19T00:59:40;4.10;;;1.10;;
66626;SDS011;53498;50.422;14.912;2022-08-19T01:02:10;2.72;;;0.85;;
66626;SDS011;53498;50.422;14.912;2022-08-19T01:04:36;1.60;;;0.68;;
66626;SDS011;53498;50.422;14.912;2022-08-19T01:07:02;1.15;;;0.57;;
66626;SDS011;53498;50.422;14.912;2022-08-19T01:09:28;2.38;;;0.73;;
66626;SDS011;53498;50.422;14.912;2022-08-19T01:11:55;2.08;;;0.88;;
66626;SDS011;53498;50.422;14.912;2022-08-19T01:14:21;2.00;;;0.70;;
66626;SDS011;53498;50.422;14.912;2022-08-19T01:16:48;1.60;;;0.70;;
66626;SDS011;53498;50.422;14.912;2022-08-19T01:19:26;2.88;;;1.10;;
66626;SDS011;53498;50.422;14.912;2022-08-19T01:21:55;4.53;;;1.10;;
66626;SDS011;53498;50.422;14.912;2022-08-19T01:24:27;1.60;;;0.93;;
66626;SDS011;53498;50.422;14.912;2022-08-19T01:26:53;2.75;;;1.38;;
66626;SDS011;53498;50.422;14.912;2022-08-19T01:29:18;5.97;;;1.23;;
66626;SDS011;53498;50.422;14.912;2022-08-19T01:31:44;2.67;;;1.40;;
66626;SDS011;53498;50.422;14.912;2022-08-19T01:34:09;4.05;;;1.45;;
66626;SDS011;53498;50.422;14.912;2022-08-19T01:36:40;3.45;;;1.20;;
66626;SDS011;53498;50.422;14.912;2022-08-19T01:39:09;0.95;;;0.80;;
66626;SDS011;53498;50.422;14.912;2022-08-19T01:41:38;2.47;;;1.20;;
66626;SDS011;53498;50.422;14.912;2022-08-19T01:44:04;1.52;;;0.98;;
66626;SDS011;53498;50.422;14.912;2022-08-19T01:46:31;3.03;;;1.45;;
66626;SDS011;53498;50.422;14.912;2022-08-19T01:48:57;2.45;;;1.58;;
66626;SDS011;53498;50.422;14.912;2022-08-19T01:51:24;3.47;;;1.30;;
66626;SDS011;53498;50.422;14.912;2022-08-19T01:53:50;1.50;;;1.40;;
66626;SDS011;53498;50.422;14.912;2022-08-19T01:56:17;4.57;;;2.08;;
66626;SDS011;53498;50.422;14.912;2022-08-19T01:58:44;3.08;;;2.00;;
66626;SDS011;53498;50.422;14.912;2022-08-19T02:01:38;2.22;;;1.70;;
66626;SDS011;53498;50.422;14.912;2022-08-19T02:04:04;3.00;;;2.13;;
66626;SDS011;53498;50.422;14.912;2022-08-19T02:06:31;2.00;;;1.80;;
66626;SDS011;53498;50.422;14.912;2022-08-19T02:08:58;4.38;;;1.55;;
66626;SDS011;53498;50.422;14.912;2022-08-19T02:11:28;1.80;;;1.60;;
66626;SDS011;53498;50.422;14.912;2022-08-19T02:13:56;3.38;;;2.08;;
66626;SDS011;53498;50.422;14.912;2022-08-19T02:16:23;2.78;;;1.92;;
66626;SDS011;53498;50.422;14.912;2022-08-19T02:18:48;2.90;;;1.98;;
66626;SDS011;53498;50.422;14.912;2022-08-19T02:21:18;2.83;;;1.92;;
66626;SDS011;53498;50.422;14.912;2022-08-19T02:23:47;4.32;;;3.13;;
66626;SDS011;53498;50.422;14.912;2022-08-19T02:26:12;3.05;;;2.33;;
66626;SDS011;53498;50.422;14.912;2022-08-19T02:28:39;4.63;;;3.05;;
66626;SDS011;53498;50.422;14.912;2022-08-19T02:31:09;4.88;;;2.85;;
66626;SDS011;53498;50.422;14.912;2022-08-19T02:33:45;4.57;;;2.92;;
66626;SDS011;53498;50.422;14.912;2022-08-19T02:36:12;4.22;;;3.17;;
66626;SDS011;53498;50.422;14.912;2022-08-19T02:38:38;7.47;;;3.63;;
66626;SDS011;53498;50.422;14.912;2022-08-19T02:41:06;3.33;;;3.03;;
66626;SDS011;53498;50.422;14.912;2022-08-19T02:43:43;5.03;;;3.95;;
66626;SDS011;53498;50.422;14.912;2022-08-19T02:46:12;7.10;;;4.28;;
66626;SDS011;53498;50.422;14.912;2022-08-19T02:48:39;5.57;;;3.97;;
66626;SDS011;53498;50.422;14.912;2022-08-19T02:51:05;4.85;;;3.50;;
66626;SDS011;53498;50.422;14.912;2022-08-19T02:53:30;9.15;;;4.20;;
66626;SDS011;53498;50.422;14.912;2022-08-19T02:56:05;5.70;;;3.85;;
66626;SDS011;53498;50.422;14.912;2022-08-19T02:58:32;5.75;;;3.70;;
66626;SDS011;53498;50.422;14.912;2022-08-19T03:00:57;5.82;;;3.58;;
66626;SDS011;53498;50.422;14.912;2022-08-19T03:03:23;5.40;;;3.25;;
66626;SDS011;53498;50.422;14.912;2022-08-19T03:05:49;5.53;;;4.00;;
66626;SDS011;53498;50.422;14.912;2022-08-19T03:08:15;4.78;;;3.55;;
66626;SDS011;53498;50.422;14.912;2022-08-19T03:10:41;7.70;;;3.92;;
66626;SDS011;53498;50.422;14.912;2022-08-19T03:13:10;7.97;;;4.10;;
66626;SDS011;53498;50.422;14.912;2022-08-19T03:15:41;4.97;;;4.00;;
66626;SDS011;53498;50.422;14.912;2022-08-19T03:18:08;6.82;;;3.95;;
66626;SDS011;53498;50.422;14.912;2022-08-19T03:20:39;3.75;;;3.05;;
66626;SDS011;53498;50.422;14.912;2022-08-19T03:23:16;5.38;;;3.78;;
66626;SDS011;53498;50.422;14.912;2022-08-19T03:25:44;4.88;;;3.78;;
66626;SDS011;53498;50.422;14.912;2022-08-19T03:28:14;6.03;;;4.30;;
66626;SDS011;53498;50.422;14.912;2022-08-19T03:30:40;5.30;;;4.07;;
66626;SDS011;53498;50.422;14.912;2022-08-19T03:33:08;6.35;;;4.05;;
66626;SDS011;53498;50.422;14.912;2022-08-19T03:35:34;4.70;;;3.42;;
66626;SDS011;53498;50.422;14.912;2022-08-19T03:38:02;8.43;;;3.88;;
66626;SDS011;53498;50.422;14.912;2022-08-19T03:40:28;6.68;;;3.45;;
66626;SDS011;53498;50.422;14.912;2022-08-19T03:42:55;5.60;;;4.07;;
66626;SDS011;53498;50.422;14.912;2022-08-19T03:45:21;5.85;;;3.85;;
66626;SDS011;53498;50.422;14.912;2022-08-19T03:47:48;5.45;;;3.58;;
66626;SDS011;53498;50.422;14.912;2022-08-19T03:50:13;5.40;;;3.58;;
66626;SDS011;53498;50.422;14.912;2022-08-19T03:52:39;5.90;;;4.60;;
66626;SDS011;53498;50.422;14.912;2022-08-19T03:55:06;5.45;;;3.83;;
66626;SDS011;53498;50.422;14.912;2022-08-19T03:57:32;7.03;;;4.18;;
66626;SDS011;53498;50.422;14.912;2022-08-19T03:59:59;6.15;;;4.40;;
66626;SDS011;53498;50.422;14.912;2022-08-19T04:02:25;8.30;;;5.25;;
66626;SDS011;53498;50.422;14.912;2022-08-19T04:04:52;9.25;;;4.97;;
66626;SDS011;53498;50.422;14.912;2022-08-19T04:07:19;7.75;;;5.68;;
66626;SDS011;53498;50.422;14.912;2022-08-19T04:09:47;10.52;;;5.65;;
66626;SDS011;53498;50.422;14.912;2022-08-19T04:12:13;6.65;;;5.55;;
66626;SDS011;53498;50.422;14.912;2022-08-19T04:14:50;8.10;;;6.00;;
66626;SDS011;53498;50.422;14.912;2022-08-19T04:17:15;7.57;;;5.95;;
66626;SDS011;53498;50.422;14.912;2022-08-19T04:19:41;9.00;;;6.60;;
66626;SDS011;53498;50.422;14.912;2022-08-19T04:22:08;9.75;;;6.50;;
66626;SDS011;53498;50.422;14.912;2022-08-19T04:24:35;10.30;;;7.32;;
66626;SDS011;53498;50.422;14.912;2022-08-19T04:27:01;11.10;;;7.03;;
66626;SDS011;53498;50.422;14.912;2022-08-19T04:29:31;10.85;;;7.10;;
66626;SDS011;53498;50.422;14.912;2022-08-19T04:31:57;9.70;;;6.70;;
66626;SDS011;53498;50.422;14.912;2022-08-19T04:34:25;9.45;;;6.68;;
66626;SDS011;53498;50.422;14.912;2022-08-19T04:36:53;9.07;;;5.95;;
66626;SDS011;53498;50.422;14.912;2022-08-19T04:39:21;7.07;;;5.50;;
66626;SDS011;53498;50.422;14.912;2022-08-19T04:42:08;6.47;;;4.53;;
66626;SDS011;53498;50.422;14.912;2022-08-19T04:47:18;7.97;;;5.13;;
66626;SDS011;53498;50.422;14.912;2022-08-19T04:49:43;7.53;;;6.40;;
66626;SDS011;53498;50.422;14.912;2022-08-19T04:52:09;10.65;;;5.95;;
66626;SDS011;53498;50.422;14.912;2022-08-19T04:54:34;9.00;;;5.80;;
66626;SDS011;53498;50.422;14.912;2022-08-19T04:57:00;8.13;;;5.43;;
66626;SDS011;53498;50.422;14.912;2022-08-19T04:59:25;9.55;;;6.68;;
66626;SDS011;53498;50.422;14.912;2022-08-19T05:01:51;8.65;;;5.43;;
66626;SDS011;53498;50.422;14.912;2022-08-19T05:04:19;7.38;;;5.03;;
66626;SDS011;53498;50.422;14.912;2022-08-19T05:06:46;9.95;;;5.50;;
66626;SDS011;53498;50.422;14.912;2022-08-19T05:09:14;10.40;;;5.95;;
66626;SDS011;53498;50.422;14.912;2022-08-19T05:11:42;7.70;;;6.38;;
66626;SDS011;53498;50.422;14.912;2022-08-19T05:14:08;8.55;;;6.47;;
66626;SDS011;53498;50.422;14.912;2022-08-19T05:16:35;12.93;;;6.97;;
66626;SDS011;53498;50.422;14.912;2022-08-19T05:19:00;8.90;;;6.00;;
66626;SDS011;53498;50.422;14.912;2022-08-19T05:21:45;8.20;;;6.20;;
66626;SDS011;53498;50.422;14.912;2022-08-19T05:24:29;9.80;;;7.05;;
66626;SDS011;53498;50.422;14.912;2022-08-19T05:26:55;9.02;;;6.35;;
66626;SDS011;53498;50.422;14.912;2022-08-19T05:29:22;10.32;;;7.53;;
66626;SDS011;53498;50.422;14.912;2022-08-19T05:31:49;8.93;;;6.47;;
66626;SDS011;53498;50.422;14.912;2022-08-19T05:34:16;10.38;;;5.82;;
66626;SDS011;53498;50.422;14.912;2022-08-19T05:36:43;7.22;;;5.97;;
66626;SDS011;53498;50.422;14.912;2022-08-19T05:39:15;8.65;;;6.65;;
66626;SDS011;53498;50.422;14.912;2022-08-19T05:41:47;10.80;;;6.35;;
66626;SDS011;53498;50.422;14.912;2022-08-19T05:44:14;10.00;;;6.25;;
66626;SDS011;53498;50.422;14.912;2022-08-19T05:46:44;8.02;;;6.30;;
66626;SDS011;53498;50.422;14.912;2022-08-19T05:49:14;8.38;;;6.10;;
66626;SDS011;53498;50.422;14.912;2022-08-19T05:51:41;8.07;;;6.13;;
66626;SDS011;53498;50.422;14.912;2022-08-19T05:54:07;10.38;;;6.65;;
66626;SDS011;53498;50.422;14.912;2022-08-19T05:56:34;11.38;;;6.60;;
66626;SDS011;53498;50.422;14.912;2022-08-19T05:59:04;9.68;;;5.93;;
66626;SDS011;53498;50.422;14.912;2022-08-19T06:01:37;10.93;;;6.95;;
66626;SDS011;53498;50.422;14.912;2022-08-19T06:04:04;8.50;;;5.95;;
66626;SDS011;53498;50.422;14.912;2022-08-19T06:06:31;10.13;;;7.40;;
66626;SDS011;53498;50.422;14.912;2022-08-19T06:09:03;10.07;;;6.43;;
66626;SDS011;53498;50.422;14.912;2022-08-19T06:11:39;12.20;;;7.67;;
66626;SDS011;53498;50.422;14.912;2022-08-19T06:14:10;10.27;;;6.55;;
66626;SDS011;53498;50.422;14.912;2022-08-19T06:16:39;9.75;;;7.15;;
66626;SDS011;53498;50.422;14.912;2022-08-19T06:19:08;8.88;;;6.80;;
66626;SDS011;53498;50.422;14.912;2022-08-19T06:21:36;11.25;;;6.97;;
66626;SDS011;53498;50.422;14.912;2022-08-19T06:24:06;11.57;;;7.13;;
66626;SDS011;53498;50.422;14.912;2022-08-19T06:26:34;10.98;;;7.25;;
66626;SDS011;53498;50.422;14.912;2022-08-19T06:29:03;11.00;;;7.18;;
66626;SDS011;53498;50.422;14.912;2022-08-19T06:31:31;13.80;;;8.90;;
66626;SDS011;53498;50.422;14.912;2022-08-19T06:33:59;12.07;;;7.80;;
66626;SDS011;53498;50.422;14.912;2022-08-19T06:36:27;12.15;;;8.07;;
66626;SDS011;53498;50.422;14.912;2022-08-19T06:39:07;13.07;;;8.73;;
66626;SDS011;53498;50.422;14.912;2022-08-19T06:41:38;14.38;;;9.30;;
66626;SDS011;53498;50.422;14.912;2022-08-19T06:44:06;11.38;;;8.00;;
66626;SDS011;53498;50.422;14.912;2022-08-19T06:46:32;9.18;;;7.28;;
66626;SDS011;53498;50.422;14.912;2022-08-19T06:48:58;10.60;;;7.18;;
66626;SDS011;53498;50.422;14.912;2022-08-19T06:51:24;12.70;;;9.23;;
66626;SDS011;53498;50.422;14.912;2022-08-19T06:53:52;16.33;;;9.45;;
66626;SDS011;53498;50.422;14.912;2022-08-19T06:56:24;12.88;;;7.13;;
66626;SDS011;53498;50.422;14.912;2022-08-19T06:58:59;14.27;;;9.75;;
66626;SDS011;53498;50.422;14.912;2022-08-19T07:01:27;13.50;;;9.10;;
66626;SDS011;53498;50.422;14.912;2022-08-19T07:03:53;13.18;;;9.90;;
66626;SDS011;53498;50.422;14.912;2022-08-19T07:06:19;14.70;;;10.52;;
66626;SDS011;53498;50.422;14.912;2022-08-19T07:08:45;12.48;;;9.23;;
66626;SDS011;53498;50.422;14.912;2022-08-19T07:11:14;13.40;;;9.13;;
66626;SDS011;53498;50.422;14.912;2022-08-19T07:13:42;12.88;;;9.05;;
66626;SDS011;53498;50.422;14.912;2022-08-19T07:16:10;13.90;;;8.90;;
66626;SDS011;53498;50.422;14.912;2022-08-19T07:18:38;13.05;;;9.38;;
66626;SDS011;53498;50.422;14.912;2022-08-19T07:21:11;11.15;;;7.15;;
66626;SDS011;53498;50.422;14.912;2022-08-19T07:23:40;11.80;;;7.55;;
66626;SDS011;53498;50.422;14.912;2022-08-19T07:26:07;11.45;;;8.68;;
66626;SDS011;53498;50.422;14.912;2022-08-19T07:28:34;9.68;;;8.15;;
66626;SDS011;53498;50.422;14.912;2022-08-19T07:31:14;12.35;;;8.27;;
66626;SDS011;53498;50.422;14.912;2022-08-19T07:33:43;13.73;;;8.68;;
66626;SDS011;53498;50.422;14.912;2022-08-19T07:36:11;13.38;;;9.73;;
66626;SDS011;53498;50.422;14.912;2022-08-19T07:38:39;12.43;;;9.18;;
66626;SDS011;53498;50.422;14.912;2022-08-19T07:41:06;11.70;;;8.88;;
66626;SDS011;53498;50.422;14.912;2022-08-19T07:43:35;13.48;;;8.00;;
66626;SDS011;53498;50.422;14.912;2022-08-19T07:46:00;12.40;;;8.35;;
66626;SDS011;53498;50.422;14.912;2022-08-19T07:48:27;13.23;;;8.35;;
66626;SDS011;53498;50.422;14.912;2022-08-19T07:50:57;12.40;;;9.35;;
66626;SDS011;53498;50.422;14.912;2022-08-19T07:53:29;15.57;;;9.10;;
66626;SDS011;53498;50.422;14.912;2022-08-19T07:55:57;12.00;;;9.45;;
66626;SDS011;53498;50.422;14.912;2022-08-19T07:58:29;12.32;;;8.75;;
66626;SDS011;53498;50.422;14.912;2022-08-19T08:01:00;18.08;;;10.48;;
66626;SDS011;53498;50.422;14.912;2022-08-19T08:03:27;12.68;;;9.15;;
66626;SDS011;53498;50.422;14.912;2022-08-19T08:06:23;14.23;;;10.70;;
66626;SDS011;53498;50.422;14.912;2022-08-19T08:09:11;11.80;;;9.55;;
66626;SDS011;53498;50.422;14.912;2022-08-19T08:11:43;12.30;;;9.93;;
66626;SDS011;53498;50.422;14.912;2022-08-19T08:14:19;15.05;;;9.82;;
66626;SDS011;53498;50.422;14.912;2022-08-19T08:16:51;14.77;;;9.27;;
66626;SDS011;53498;50.422;14.912;2022-08-19T08:19:18;12.93;;;9.20;;
66626;SDS011;53498;50.422;14.912;2022-08-19T08:21:44;14.10;;;9.95;;
66626;SDS011;53498;50.422;14.912;2022-08-19T08:24:10;14.88;;;10.32;;
66626;SDS011;53498;50.422;14.912;2022-08-19T08:26:37;14.57;;;10.68;;
66626;SDS011;53498;50.422;14.912;2022-08-19T08:29:03;10.70;;;8.02;;
66626;SDS011;53498;50.422;14.912;2022-08-19T08:31:28;12.77;;;9.55;;
66626;SDS011;53498;50.422;14.912;2022-08-19T08:33:54;13.10;;;9.45;;
66626;SDS011;53498;50.422;14.912;2022-08-19T08:36:19;12.27;;;9.82;;
66626;SDS011;53498;50.422;14.912;2022-08-19T08:38:45;15.30;;;10.20;;
66626;SDS011;53498;50.422;14.912;2022-08-19T08:41:31;17.13;;;10.82;;
66626;SDS011;53498;50.422;14.912;2022-08-19T08:44:22;13.45;;;10.30;;
66626;SDS011;53498;50.422;14.912;2022-08-19T08:46:58;12.32;;;8.85;;
66626;SDS011;53498;50.422;14.912;2022-08-19T08:54:48;17.13;;;11.48;;
66626;SDS011;53498;50.422;14.912;2022-08-19T08:57:36;20.00;;;10.80;;
66626;SDS011;53498;50.422;14.912;2022-08-19T09:00:21;13.20;;;9.93;;
66626;SDS011;53498;50.422;14.912;2022-08-19T09:02:53;16.02;;;12.07;;
66626;SDS011;53498;50.422;14.912;2022-08-19T09:05:20;16.60;;;10.93;;
66626;SDS011;53498;50.422;14.912;2022-08-19T09:07:59;14.82;;;10.43;;
66626;SDS011;53498;50.422;14.912;2022-08-19T09:10:40;15.85;;;11.00;;
66626;SDS011;53498;50.422;14.912;2022-08-19T09:13:16;17.23;;;11.25;;
66626;SDS011;53498;50.422;14.912;2022-08-19T09:16:06;12.65;;;10.75;;
66626;SDS011;53498;50.422;14.912;2022-08-19T09:18:46;14.75;;;10.32;;
66626;SDS011;53498;50.422;14.912;2022-08-19T09:21:14;15.10;;;10.43;;
66626;SDS011;53498;50.422;14.912;2022-08-19T09:23:40;14.57;;;10.38;;
66626;SDS011;53498;50.422;14.912;2022-08-19T09:26:07;15.98;;;11.23;;
66626;SDS011;53498;50.422;14.912;2022-08-19T09:28:40;13.93;;;10.25;;
66626;SDS011;53498;50.422;14.912;2022-08-19T09:31:12;12.95;;;10.02;;
66626;SDS011;53498;50.422;14.912;2022-08-19T09:33:39;15.38;;;10.57;;
66626;SDS011;53498;50.422;14.912;2022-08-19T09:36:10;15.20;;;10.38;;
66626;SDS011;53498;50.422;14.912;2022-08-19T09:38:37;15.52;;;10.48;;
66626;SDS011;53498;50.422;14.912;2022-08-19T09:41:11;13.68;;;10.55;;
66626;SDS011;53498;50.422;14.912;2022-08-19T09:43:41;13.57;;;9.85;;
66626;SDS011;53498;50.422;14.912;2022-08-19T09:46:09;11.55;;;8.77;;
66626;SDS011;53498;50.422;14.912;2022-08-19T09:48:35;12.50;;;10.00;;
66626;SDS011;53498;50.422;14.912;2022-08-19T09:51:03;13.50;;;9.95;;
66626;SDS011;53498;50.422;14.912;2022-08-19T09:53:36;14.15;;;9.90;;
66626;SDS011;53498;50.422;14.912;2022-08-19T09:56:03;14.65;;;9.80;;
66626;SDS011;53498;50.422;14.912;2022-08-19T09:58:31;13.25;;;9.48;;
66626;SDS011;53498;50.422;14.912;2022-08-19T10:00:57;15.65;;;11.05;;
66626;SDS011;53498;50.422;14.912;2022-08-19T10:03:25;17.30;;;10.38;;
66626;SDS011;53498;50.422;14.912;2022-08-19T10:05:52;16.85;;;11.50;;
66626;SDS011;53498;50.422;14.912;2022-08-19T10:08:19;15.13;;;10.52;;
66626;SDS011;53498;50.422;14.912;2022-08-19T10:10:51;12.77;;;9.45;;
66626;SDS011;53498;50.422;14.912;2022-08-19T10:13:18;18.60;;;11.48;;
66626;SDS011;53498;50.422;14.912;2022-08-19T10:15:47;13.57;;;9.90;;
66626;SDS011;53498;50.422;14.912;2022-08-19T10:18:16;13.50;;;9.82;;
66626;SDS011;53498;50.422;14.912;2022-08-19T10:20:44;14.60;;;10.48;;
66626;SDS011;53498;50.422;14.912;2022-08-19T10:23:11;15.77;;;10.93;;
66626;SDS011;53498;50.422;14.912;2022-08-19T10:25:37;12.90;;;9.13;;
66626;SDS011;53498;50.422;14.912;2022-08-19T10:28:03;18.33;;;11.10;;
66626;SDS011;53498;50.422;14.912;2022-08-19T10:30:32;14.35;;;10.35;;
66626;SDS011;53498;50.422;14.912;2022-08-19T10:33:00;17.08;;;10.30;;
66626;SDS011;53498;50.422;14.912;2022-08-19T10:35:26;15.68;;;9.95;;
66626;SDS011;53498;50.422;14.912;2022-08-19T10:37:53;15.90;;;10.65;;
66626;SDS011;53498;50.422;14.912;2022-08-19T10:40:19;15.10;;;10.20;;
66626;SDS011;53498;50.422;14.912;2022-08-19T10:42:44;15.57;;;10.27;;
66626;SDS011;53498;50.422;14.912;2022-08-19T10:45:10;15.70;;;10.80;;
66626;SDS011;53498;50.422;14.912;2022-08-19T10:47:36;12.45;;;10.25;;
66626;SDS011;53498;50.422;14.912;2022-08-19T10:50:02;13.07;;;10.38;;
66626;SDS011;53498;50.422;14.912;2022-08-19T10:52:48;15.40;;;10.25;;
66626;SDS011;53498;50.422;14.912;2022-08-19T10:55:15;12.52;;;9.85;;
66626;SDS011;53498;50.422;14.912;2022-08-19T10:57:59;12.55;;;9.50;;
66626;SDS011;53498;50.422;14.912;2022-08-19T11:00:24;14.73;;;11.00;;
66626;SDS011;53498;50.422;14.912;2022-08-19T11:02:51;15.82;;;11.15;;
66626;SDS011;53498;50.422;14.912;2022-08-19T11:05:17;16.35;;;10.57;;
66626;SDS011;53498;50.422;14.912;2022-08-19T11:07:44;11.20;;;9.38;;
66626;SDS011;53498;50.422;14.912;2022-08-19T11:10:11;13.63;;;10.63;;
66626;SDS011;53498;50.422;14.912;2022-08-19T11:12:39;13.10;;;9.70;;
66626;SDS011;53498;50.422;14.912;2022-08-19T11:15:06;12.50;;;9.63;;
66626;SDS011;53498;50.422;14.912;2022-08-19T11:17:34;13.75;;;10.35;;
66626;SDS011;53498;50.422;14.912;2022-08-19T11:20:03;13.18;;;11.00;;
66626;SDS011;53498;50.422;14.912;2022-08-19T11:22:30;14.13;;;10.15;;
66626;SDS011;53498;50.422;14.912;2022-08-19T11:24:55;12.80;;;10.15;;
66626;SDS011;53498;50.422;14.912;2022-08-19T11:27:21;13.25;;;10.13;;
66626;SDS011;53498;50.422;14.912;2022-08-19T11:29:47;16.95;;;10.57;;
66626;SDS011;53498;50.422;14.912;2022-08-19T11:32:12;14.15;;;9.65;;
66626;SDS011;53498;50.422;14.912;2022-08-19T11:34:38;11.68;;;9.35;;
66626;SDS011;53498;50.422;14.912;2022-08-19T11:37:04;13.35;;;8.57;;
66626;SDS011;53498;50.422;14.912;2022-08-19T11:39:31;14.35;;;9.30;;
66626;SDS011;53498;50.422;14.912;2022-08-19T11:41:58;12.00;;;9.63;;
66626;SDS011;53498;50.422;14.912;2022-08-19T11:44:25;14.40;;;9.90;;
66626;SDS011;53498;50.422;14.912;2022-08-19T11:46:50;14.65;;;9.77;;
66626;SDS011;53498;50.422;14.912;2022-08-19T11:49:18;12.18;;;9.38;;
66626;SDS011;53498;50.422;14.912;2022-08-19T11:51:45;14.10;;;9.77;;
66626;SDS011;53498;50.422;14.912;2022-08-19T11:54:12;13.95;;;10.77;;
66626;SDS011;53498;50.422;14.912;2022-08-19T11:56:39;13.65;;;9.98;;
66626;SDS011;53498;50.422;14.912;2022-08-19T11:59:05;13.68;;;9.75;;
66626;SDS011;53498;50.422;14.912;2022-08-19T12:01:32;13.50;;;10.05;;
66626;SDS011;53498;50.422;14.912;2022-08-19T12:03:59;13.63;;;10.30;;
66626;SDS011;53498;50.422;14.912;2022-08-19T12:06:27;14.27;;;9.73;;
66626;SDS011;53498;50.422;14.912;2022-08-19T12:08:54;12.52;;;10.18;;
66626;SDS011;53498;50.422;14.912;2022-08-19T12:11:22;13.13;;;9.75;;
66626;SDS011;53498;50.422;14.912;2022-08-19T12:13:48;11.70;;;9.38;;
66626;SDS011;53498;50.422;14.912;2022-08-19T12:16:16;14.88;;;10.10;;
66626;SDS011;53498;50.422;14.912;2022-08-19T12:18:45;13.25;;;9.38;;
66626;SDS011;53498;50.422;14.912;2022-08-19T12:21:12;14.43;;;9.40;;
66626;SDS011;53498;50.422;14.912;2022-08-19T12:23:39;11.77;;;9.00;;
66626;SDS011;53498;50.422;14.912;2022-08-19T12:26:06;12.73;;;9.63;;
66626;SDS011;53498;50.422;14.912;2022-08-19T12:28:32;15.70;;;10.13;;
66626;SDS011;53498;50.422;14.912;2022-08-19T12:30:57;12.43;;;9.10;;
66626;SDS011;53498;50.422;14.912;2022-08-19T12:33:23;14.30;;;8.93;;
66626;SDS011;53498;50.422;14.912;2022-08-19T12:35:52;13.52;;;9.48;;
66626;SDS011;53498;50.422;14.912;2022-08-19T12:38:18;11.48;;;9.40;;
66626;SDS011;53498;50.422;14.912;2022-08-19T12:40:47;14.43;;;9.60;;
66626;SDS011;53498;50.422;14.912;2022-08-19T12:43:16;13.38;;;9.35;;
66626;SDS011;53498;50.422;14.912;2022-08-19T12:45:45;12.60;;;10.13;;
66626;SDS011;53498;50.422;14.912;2022-08-19T12:48:10;13.32;;;9.80;;
66626;SDS011;53498;50.422;14.912;2022-08-19T12:50:41;13.45;;;9.82;;
66626;SDS011;53498;50.422;14.912;2022-08-19T12:53:08;12.23;;;9.20;;
66626;SDS011;53498;50.422;14.912;2022-08-19T12:55:34;12.30;;;9.30;;
66626;SDS011;53498;50.422;14.912;2022-08-19T12:57:59;11.43;;;8.55;;
66626;SDS011;53498;50.422;14.912;2022-08-19T13:00:26;16.27;;;10.20;;
66626;SDS011;53498;50.422;14.912;2022-08-19T13:02:52;14.45;;;9.45;;
66626;SDS011;53498;50.422;14.912;2022-08-19T13:05:20;11.93;;;8.68;;
66626;SDS011;53498;50.422;14.912;2022-08-19T13:07:48;12.63;;;10.07;;
66626;SDS011;53498;50.422;14.912;2022-08-19T13:10:16;12.40;;;9.20;;
66626;SDS011;53498;50.422;14.912;2022-08-19T13:12:45;12.18;;;9.13;;
66626;SDS011;53498;50.422;14.912;2022-08-19T13:15:13;14.32;;;10.05;;
66626;SDS011;53498;50.422;14.912;2022-08-19T13:17:40;11.90;;;8.82;;
66626;SDS011;53498;50.422;14.912;2022-08-19T13:20:07;11.73;;;8.85;;
66626;SDS011;53498;50.422;14.912;2022-08-19T13:22:34;10.98;;;8.50;;
66626;SDS011;53498;50.422;14.912;2022-08-19T13:25:02;13.00;;;8.45;;
66626;SDS011;53498;50.422;14.912;2022-08-19T13:27:28;12.00;;;9.07;;
66626;SDS011;53498;50.422;14.912;2022-08-19T13:29:54;11.30;;;8.93;;
66626;SDS011;53498;50.422;14.912;2022-08-19T13:32:38;12.02;;;8.68;;
66626;SDS011;53498;50.422;14.912;2022-08-19T13:35:22;11.43;;;9.50;;
66626;SDS011;53498;50.422;14.912;2022-08-19T13:37:48;11.90;;;8.32;;
66626;SDS011;53498;50.422;14.912;2022-08-19T13:40:14;10.82;;;7.63;;
66626;SDS011;53498;50.422;14.912;2022-08-19T13:42:43;9.55;;;8.25;;
66626;SDS011;53498;50.422;14.912;2022-08-19T13:45:11;12.25;;;8.85;;
66626;SDS011;53498;50.422;14.912;2022-08-19T13:47:38;12.02;;;9.70;;
66626;SDS011;53498;50.422;14.912;2022-08-19T13:50:10;11.57;;;8.93;;
66626;SDS011;53498;50.422;14.912;2022-08-19T13:52:38;13.52;;;8.35;;
66626;SDS011;53498;50.422;14.912;2022-08-19T13:55:04;9.13;;;6.72;;
66626;SDS011;53498;50.422;14.912;2022-08-19T13:57:30;12.63;;;8.93;;
66626;SDS011;53498;50.422;14.912;2022-08-19T13:59:57;10.15;;;7.97;;
66626;SDS011;53498;50.422;14.912;2022-08-19T14:02:23;10.05;;;7.88;;
66626;SDS011;53498;50.422;14.912;2022-08-19T14:04:49;10.60;;;7.18;;
66626;SDS011;53498;50.422;14.912;2022-08-19T14:07:15;12.63;;;8.50;;
66626;SDS011;53498;50.422;14.912;2022-08-19T14:09:40;14.73;;;8.63;;
66626;SDS011;53498;50.422;14.912;2022-08-19T14:12:06;10.80;;;7.97;;
66626;SDS011;53498;50.422;14.912;2022-08-19T14:14:32;12.63;;;8.90;;
66626;SDS011;53498;50.422;14.912;2022-08-19T14:17:01;12.68;;;8.07;;
66626;SDS011;53498;50.422;14.912;2022-08-19T14:19:26;11.10;;;7.05;;
66626;SDS011;53498;50.422;14.912;2022-08-19T14:21:52;9.63;;;7.28;;
66626;SDS011;53498;50.422;14.912;2022-08-19T14:24:17;9.80;;;7.55;;
66626;SDS011;53498;50.422;14.912;2022-08-19T14:26:42;10.00;;;7.45;;
66626;SDS011;53498;50.422;14.912;2022-08-19T14:29:08;10.63;;;7.90;;
66626;SDS011;53498;50.422;14.912;2022-08-19T14:31:33;9.18;;;7.13;;
66626;SDS011;53498;50.422;14.912;2022-08-19T14:33:59;9.48;;;7.40;;
66626;SDS011;53498;50.422;14.912;2022-08-19T14:36:24;8.45;;;6.47;;
66626;SDS011;53498;50.422;14.912;2022-08-19T14:38:50;9.52;;;7.10;;